sensor_id;sensor_type;location;lat;lon;timestamp;pressure;altitude;pressure_sealevel;temperature;humidity
40708;BME280;26392;42.696;23.350;2023-05-12T00:01:14;95560.00;;;10.32;100.00
40708;BME280;26392;42.696;23.350;2023-05-12T00:03:39;95561.66;;;10.33;100.00
40708;BME280;26392;42.696;23.350;2023-05-12T00:06:06;95561.66;;;10.33;100.00
40708;BME280;26392;42.696;23.350;2023-05-12T00:08:31;95577.06;;;10.27;100.00
40708;BME280;26392;42.696;23.350;2023-05-12T00:10:57;95558.88;;;10.16;100.00
40708;BME280;26392;42.696;23.350;2023-05-12T00:13:22;95568.38;;;10.14;100.00
40708;BME280;26392;42.696;23.350;2023-05-12T00:15:49;95567.31;;;10.15;100.00
40708;BME280;26392;42.696;23.350;2023-05-12T00:18:15;95562.91;;;9.97;100.00
40708;BME280;26392;42.696;23.350;2023-05-12T00:20:41;95568.34;;;9.97;100.00
40708;BME280;26392;42.696;23.350;2023-05-12T00:23:06;95566.53;;;10.02;100.00
40708;BME280;26392;42.696;23.350;2023-05-12T00:25:32;95563.59;;;10.04;100.00
40708;BME280;26392;42.696;23.350;2023-05-12T00:27:58;95565.63;;;9.97;100.00
40708;BME280;26392;42.696;23.350;2023-05-12T00:30:23;95557.13;;;9.93;100.00
40708;BME280;26392;42.696;23.350;2023-05-12T00:32:49;95566.28;;;9.87;100.00
40708;BME280;26392;42.696;23.350;2023-05-12T00:35:15;95565.56;;;9.92;100.00
40708;BME280;26392;42.696;23.350;2023-05-12T00:37:41;95561.91;;;9.86;100.00
40708;BME280;26392;42.696;23.350;2023-05-12T00:40:07;95571.28;;;9.78;100.00
40708;BME280;26392;42.696;23.350;2023-05-12T00:42:34;95567.66;;;9.73;100.00
40708;BME280;26392;42.696;23.350;2023-05-12T00:44:59;95573.69;;;9.75;100.00
40708;BME280;26392;42.696;23.350;2023-05-12T00:47:24;95573.31;;;9.71;100.00
40708;BME280;26392;42.696;23.350;2023-05-12T00:49:50;95577.72;;;9.72;100.00
40708;BME280;26392;42.696;23.350;2023-05-12T00:52:15;95573.22;;;9.66;100.00
40708;BME280;26392;42.696;23.350;2023-05-12T00:54:41;95565.56;;;9.63;100.00
40708;BME280;26392;42.696;23.350;2023-05-12T00:57:07;95576.09;;;9.59;100.00
40708;BME280;26392;42.696;23.350;2023-05-12T00:59:34;95583.19;;;9.60;100.00
40708;BME280;26392;42.696;23.350;2023-05-12T01:01:59;95585.22;;;9.53;100.00
40708;BME280;26392;42.696;23.350;2023-05-12T01:04:25;95581.91;;;9.51;100.00
40708;BME280;26392;42.696;23.350;2023-05-12T01:09:19;95586.53;;;9.51;100.00
40708;BME280;26392;42.696;23.350;2023-05-12T01:11:44;95584.09;;;9.37;100.00
40708;BME280;26392;42.696;23.350;2023-05-12T01:14:10;95588.34;;;9.45;100.00
40708;BME280;26392;42.696;23.350;2023-05-12T01:16:45;95582.78;;;9.40;100.00
40708;BME280;26392;42.696;23.350;2023-05-12T01:21:56;95588.38;;;9.33;100.00
40708;BME280;26392;42.696;23.350;2023-05-12T01:24:23;95586.47;;;9.34;100.00
40708;BME280;26392;42.696;23.350;2023-05-12T01:26:50;95589.41;;;9.32;100.00
40708;BME280;26392;42.696;23.350;2023-05-12T01:29:16;95601.03;;;9.28;100.00
40708;BME280;26392;42.696;23.350;2023-05-12T01:31:42;95592.06;;;9.27;100.00
40708;BME280;26392;42.696;23.350;2023-05-12T01:34:14;95597.88;;;9.19;100.00
40708;BME280;26392;42.696;23.350;2023-05-12T01:36:40;95593.47;;;9.18;100.00
40708;BME280;26392;42.696;23.350;2023-05-12T01:39:05;95590.31;;;8.98;100.00
40708;BME280;26392;42.696;23.350;2023-05-12T01:41:30;95573.44;;;8.84;100.00
40708;BME280;26392;42.696;23.350;2023-05-12T01:43:56;95589.75;;;8.84;100.00
40708;BME280;26392;42.696;23.350;2023-05-12T01:46:21;95584.78;;;8.81;100.00
40708;BME280;26392;42.696;23.350;2023-05-12T01:48:46;95594.72;;;8.75;100.00
40708;BME280;26392;42.696;23.350;2023-05-12T01:51:12;95593.41;;;8.78;100.00
40708;BME280;26392;42.696;23.350;2023-05-12T01:53:37;95569.31;;;8.69;100.00
40708;BME280;26392;42.696;23.350;2023-05-12T01:56:03;95596.00;;;8.84;100.00
40708;BME280;26392;42.696;23.350;2023-05-12T01:58:28;95589.28;;;8.87;100.00
40708;BME280;26392;42.696;23.350;2023-05-12T02:00:53;95589.06;;;8.77;100.00
40708;BME280;26392;42.696;23.350;2023-05-12T02:03:19;95591.66;;;8.83;100.00
40708;BME280;26392;42.696;23.350;2023-05-12T02:05:44;95596.72;;;8.80;100.00
40708;BME280;26392;42.696;23.350;2023-05-12T02:08:09;95599.66;;;8.78;100.00
40708;BME280;26392;42.696;23.350;2023-05-12T02:10:35;95596.84;;;8.73;100.00
40708;BME280;26392;42.696;23.350;2023-05-12T02:13:00;95589.41;;;8.68;100.00
40708;BME280;26392;42.696;23.350;2023-05-12T02:15:26;95595.41;;;8.59;100.00
40708;BME280;26392;42.696;23.350;2023-05-12T02:17:51;95602.88;;;8.63;100.00
40708;BME280;26392;42.696;23.350;2023-05-12T02:20:18;95590.81;;;8.59;100.00
40708;BME280;26392;42.696;23.350;2023-05-12T02:22:44;95592.81;;;8.64;100.00
40708;BME280;26392;42.696;23.350;2023-05-12T02:25:09;95597.31;;;8.58;100.00
40708;BME280;26392;42.696;23.350;2023-05-12T02:27:35;95587.41;;;8.52;100.00
40708;BME280;26392;42.696;23.350;2023-05-12T02:30:00;95592.34;;;8.43;100.00
40708;BME280;26392;42.696;23.350;2023-05-12T02:32:26;95591.28;;;8.44;100.00
40708;BME280;26392;42.696;23.350;2023-05-12T02:34:54;95590.69;;;8.42;100.00
40708;BME280;26392;42.696;23.350;2023-05-12T02:37:19;95596.75;;;8.26;100.00
40708;BME280;26392;42.696;23.350;2023-05-12T02:39:45;95595.00;;;8.32;100.00
40708;BME280;26392;42.696;23.350;2023-05-12T02:42:10;95593.56;;;8.17;100.00
40708;BME280;26392;42.696;23.350;2023-05-12T02:44:36;95599.13;;;8.22;100.00
40708;BME280;26392;42.696;23.350;2023-05-12T02:47:01;95588.25;;;8.22;100.00
40708;BME280;26392;42.696;23.350;2023-05-12T02:49:27;95575.84;;;8.15;100.00
40708;BME280;26392;42.696;23.350;2023-05-12T02:51:52;95597.47;;;8.21;100.00
40708;BME280;26392;42.696;23.350;2023-05-12T02:54:19;95601.13;;;8.15;100.00
40708;BME280;26392;42.696;23.350;2023-05-12T02:56:44;95584.13;;;8.08;100.00
40708;BME280;26392;42.696;23.350;2023-05-12T02:59:10;95585.75;;;8.09;100.00
40708;BME280;26392;42.696;23.350;2023-05-12T03:01:36;95593.78;;;8.04;100.00
40708;BME280;26392;42.696;23.350;2023-05-12T03:04:01;95594.97;;;8.08;100.00
40708;BME280;26392;42.696;23.350;2023-05-12T03:06:28;95591.50;;;8.01;100.00
40708;BME280;26392;42.696;23.350;2023-05-12T03:08:54;95598.00;;;8.00;100.00
40708;BME280;26392;42.696;23.350;2023-05-12T03:11:20;95599.09;;;7.99;100.00
40708;BME280;26392;42.696;23.350;2023-05-12T03:13:46;95593.19;;;8.02;100.00
40708;BME280;26392;42.696;23.350;2023-05-12T03:16:12;95597.19;;;7.99;100.00
40708;BME280;26392;42.696;23.350;2023-05-12T03:18:37;95606.50;;;8.03;100.00
40708;BME280;26392;42.696;23.350;2023-05-12T03:21:03;95599.44;;;8.02;100.00
40708;BME280;26392;42.696;23.350;2023-05-12T03:23:28;95605.69;;;8.03;100.00
40708;BME280;26392;42.696;23.350;2023-05-12T03:25:54;95597.53;;;7.91;100.00
40708;BME280;26392;42.696;23.350;2023-05-12T03:28:20;95606.00;;;7.95;100.00
40708;BME280;26392;42.696;23.350;2023-05-12T03:30:47;95603.78;;;8.03;100.00
40708;BME280;26392;42.696;23.350;2023-05-12T03:33:12;95616.53;;;8.03;100.00
40708;BME280;26392;42.696;23.350;2023-05-12T03:35:38;95604.75;;;8.09;100.00
40708;BME280;26392;42.696;23.350;2023-05-12T03:38:03;95612.44;;;8.12;100.00
40708;BME280;26392;42.696;23.350;2023-05-12T03:40:29;95614.09;;;8.13;100.00
40708;BME280;26392;42.696;23.350;2023-05-12T03:42:54;95618.25;;;8.16;100.00
40708;BME280;26392;42.696;23.350;2023-05-12T03:45:20;95608.06;;;8.11;100.00
40708;BME280;26392;42.696;23.350;2023-05-12T03:47:46;95612.34;;;8.19;100.00
40708;BME280;26392;42.696;23.350;2023-05-12T03:50:11;95613.41;;;8.18;100.00
40708;BME280;26392;42.696;23.350;2023-05-12T03:52:37;95609.72;;;8.12;100.00
40708;BME280;26392;42.696;23.350;2023-05-12T03:55:05;95614.38;;;8.23;100.00
40708;BME280;26392;42.696;23.350;2023-05-12T03:57:31;95619.19;;;8.21;100.00
40708;BME280;26392;42.696;23.350;2023-05-12T03:59:56;95619.88;;;8.17;100.00
40708;BME280;26392;42.696;23.350;2023-05-12T04:02:22;95621.44;;;8.24;100.00
40708;BME280;26392;42.696;23.350;2023-05-12T04:04:47;95622.25;;;8.25;100.00
40708;BME280;26392;42.696;23.350;2023-05-12T04:07:13;95614.94;;;8.25;100.00
40708;BME280;26392;42.696;23.350;2023-05-12T04:09:38;95626.06;;;8.36;100.00
40708;BME280;26392;42.696;23.350;2023-05-12T04:12:04;95634.06;;;8.30;100.00
40708;BME280;26392;42.696;23.350;2023-05-12T04:14:30;95626.19;;;8.29;100.00
40708;BME280;26392;42.696;23.350;2023-05-12T04:16:55;95639.16;;;8.27;100.00
40708;BME280;26392;42.696;23.350;2023-05-12T04:19:22;95629.84;;;8.35;100.00
40708;BME280;26392;42.696;23.350;2023-05-12T04:21:48;95632.91;;;8.38;100.00
40708;BME280;26392;42.696;23.350;2023-05-12T04:24:13;95633.44;;;8.47;100.00
40708;BME280;26392;42.696;23.350;2023-05-12T04:26:39;95629.78;;;8.53;100.00
40708;BME280;26392;42.696;23.350;2023-05-12T04:29:04;95635.00;;;8.66;100.00
40708;BME280;26392;42.696;23.350;2023-05-12T04:31:29;95631.81;;;8.69;100.00
40708;BME280;26392;42.696;23.350;2023-05-12T04:33:55;95628.13;;;8.76;100.00
40708;BME280;26392;42.696;23.350;2023-05-12T04:36:21;95632.03;;;8.91;100.00
40708;BME280;26392;42.696;23.350;2023-05-12T04:38:47;95627.66;;;8.79;100.00
40708;BME280;26392;42.696;23.350;2023-05-12T04:41:12;95627.91;;;8.77;100.00
40708;BME280;26392;42.696;23.350;2023-05-12T04:43:38;95626.50;;;8.74;100.00
40708;BME280;26392;42.696;23.350;2023-05-12T04:46:03;95624.59;;;8.87;100.00
40708;BME280;26392;42.696;23.350;2023-05-12T04:48:29;95626.00;;;8.89;100.00
40708;BME280;26392;42.696;23.350;2023-05-12T04:50:57;95627.56;;;8.97;100.00
40708;BME280;26392;42.696;23.350;2023-05-12T04:53:23;95626.59;;;8.91;100.00
40708;BME280;26392;42.696;23.350;2023-05-12T04:55:48;95634.63;;;8.86;100.00
40708;BME280;26392;42.696;23.350;2023-05-12T04:58:14;95628.59;;;8.72;100.00
40708;BME280;26392;42.696;23.350;2023-05-12T05:00:39;95636.28;;;8.76;100.00
40708;BME280;26392;42.696;23.350;2023-05-12T05:03:05;95635.81;;;8.79;100.00
40708;BME280;26392;42.696;23.350;2023-05-12T05:05:31;95634.03;;;8.72;100.00
40708;BME280;26392;42.696;23.350;2023-05-12T05:07:57;95641.25;;;8.79;100.00
40708;BME280;26392;42.696;23.350;2023-05-12T05:10:23;95637.09;;;8.64;100.00
40708;BME280;26392;42.696;23.350;2023-05-12T05:12:48;95630.38;;;8.67;100.00
40708;BME280;26392;42.696;23.350;2023-05-12T05:15:13;95635.81;;;8.67;100.00
40708;BME280;26392;42.696;23.350;2023-05-12T05:17:39;95628.84;;;8.83;100.00
40708;BME280;26392;42.696;23.350;2023-05-12T05:20:05;95632.53;;;8.88;100.00
40708;BME280;26392;42.696;23.350;2023-05-12T05:22:31;95633.00;;;8.97;100.00
40708;BME280;26392;42.696;23.350;2023-05-12T05:24:57;95642.69;;;9.05;100.00
40708;BME280;26392;42.696;23.350;2023-05-12T05:27:23;95640.88;;;8.99;100.00
40708;BME280;26392;42.696;23.350;2023-05-12T05:29:48;95641.75;;;8.99;100.00
40708;BME280;26392;42.696;23.350;2023-05-12T05:32:14;95639.03;;;8.99;100.00
40708;BME280;26392;42.696;23.350;2023-05-12T05:34:39;95637.94;;;9.00;100.00
40708;BME280;26392;42.696;23.350;2023-05-12T05:37:05;95649.63;;;9.12;100.00
40708;BME280;26392;42.696;23.350;2023-05-12T05:39:30;95649.97;;;9.04;100.00
40708;BME280;26392;42.696;23.350;2023-05-12T05:41:56;95649.50;;;9.07;100.00
40708;BME280;26392;42.696;23.350;2023-05-12T05:44:23;95656.25;;;9.16;100.00
40708;BME280;26392;42.696;23.350;2023-05-12T05:46:49;95651.53;;;9.12;100.00
40708;BME280;26392;42.696;23.350;2023-05-12T05:49:15;95655.53;;;9.09;100.00
40708;BME280;26392;42.696;23.350;2023-05-12T05:51:40;95652.72;;;8.92;100.00
40708;BME280;26392;42.696;23.350;2023-05-12T05:54:05;95642.91;;;9.03;100.00
40708;BME280;26392;42.696;23.350;2023-05-12T05:56:31;95657.56;;;9.14;100.00
40708;BME280;26392;42.696;23.350;2023-05-12T05:58:57;95658.50;;;9.19;100.00
40708;BME280;26392;42.696;23.350;2023-05-12T06:01:27;95649.75;;;9.17;100.00
40708;BME280;26392;42.696;23.350;2023-05-12T06:03:52;95648.91;;;9.29;100.00
40708;BME280;26392;42.696;23.350;2023-05-12T06:06:18;95661.16;;;9.43;100.00
40708;BME280;26392;42.696;23.350;2023-05-12T06:08:43;95660.09;;;9.56;100.00
40708;BME280;26392;42.696;23.350;2023-05-12T06:11:09;95654.16;;;9.59;100.00
40708;BME280;26392;42.696;23.350;2023-05-12T06:13:35;95660.28;;;9.66;100.00
40708;BME280;26392;42.696;23.350;2023-05-12T06:16:00;95660.66;;;9.70;100.00
40708;BME280;26392;42.696;23.350;2023-05-12T06:18:26;95663.31;;;9.81;100.00
40708;BME280;26392;42.696;23.350;2023-05-12T06:20:51;95666.44;;;9.73;100.00
40708;BME280;26392;42.696;23.350;2023-05-12T06:23:17;95664.25;;;9.87;100.00
40708;BME280;26392;42.696;23.350;2023-05-12T06:25:42;95666.94;;;9.99;100.00
40708;BME280;26392;42.696;23.350;2023-05-12T06:28:08;95669.38;;;9.72;100.00
40708;BME280;26392;42.696;23.350;2023-05-12T06:30:33;95671.75;;;9.68;100.00
40708;BME280;26392;42.696;23.350;2023-05-12T06:32:59;95674.09;;;9.76;100.00
40708;BME280;26392;42.696;23.350;2023-05-12T06:35:24;95679.03;;;9.91;100.00
40708;BME280;26392;42.696;23.350;2023-05-12T06:37:50;95675.25;;;9.92;100.00
40708;BME280;26392;42.696;23.350;2023-05-12T06:40:15;95676.28;;;9.91;100.00
40708;BME280;26392;42.696;23.350;2023-05-12T06:42:41;95670.97;;;9.96;100.00
40708;BME280;26392;42.696;23.350;2023-05-12T06:45:07;95672.91;;;10.13;100.00
40708;BME280;26392;42.696;23.350;2023-05-12T06:47:33;95674.56;;;10.14;100.00
40708;BME280;26392;42.696;23.350;2023-05-12T06:49:59;95683.91;;;10.18;100.00
40708;BME280;26392;42.696;23.350;2023-05-12T06:52:24;95676.94;;;10.10;100.00
40708;BME280;26392;42.696;23.350;2023-05-12T06:54:50;95678.63;;;10.11;100.00
40708;BME280;26392;42.696;23.350;2023-05-12T06:57:15;95678.69;;;10.28;100.00
40708;BME280;26392;42.696;23.350;2023-05-12T06:59:40;95679.13;;;10.53;100.00
40708;BME280;26392;42.696;23.350;2023-05-12T07:02:06;95670.78;;;10.60;100.00
40708;BME280;26392;42.696;23.350;2023-05-12T07:04:31;95674.03;;;10.74;100.00
40708;BME280;26392;42.696;23.350;2023-05-12T07:06:57;95676.34;;;10.82;100.00
40708;BME280;26392;42.696;23.350;2023-05-12T07:09:22;95675.53;;;10.65;100.00
40708;BME280;26392;42.696;23.350;2023-05-12T07:11:48;95669.56;;;10.68;100.00
40708;BME280;26392;42.696;23.350;2023-05-12T07:14:13;95681.88;;;10.87;100.00
40708;BME280;26392;42.696;23.350;2023-05-12T07:16:39;95678.97;;;10.94;100.00
40708;BME280;26392;42.696;23.350;2023-05-12T07:19:04;95676.75;;;10.74;100.00
40708;BME280;26392;42.696;23.350;2023-05-12T07:21:30;95684.84;;;10.69;100.00
40708;BME280;26392;42.696;23.350;2023-05-12T07:23:56;95686.94;;;10.79;100.00
40708;BME280;26392;42.696;23.350;2023-05-12T07:26:21;95681.38;;;10.73;100.00
40708;BME280;26392;42.696;23.350;2023-05-12T07:28:48;95679.31;;;10.97;100.00
40708;BME280;26392;42.696;23.350;2023-05-12T07:31:14;95680.06;;;11.10;100.00
40708;BME280;26392;42.696;23.350;2023-05-12T07:33:39;95670.38;;;11.19;100.00
40708;BME280;26392;42.696;23.350;2023-05-12T07:36:05;95671.88;;;11.49;100.00
40708;BME280;26392;42.696;23.350;2023-05-12T07:38:32;95688.19;;;11.43;100.00
40708;BME280;26392;42.696;23.350;2023-05-12T07:40:58;95677.81;;;11.62;100.00
40708;BME280;26392;42.696;23.350;2023-05-12T07:43:24;95683.06;;;11.69;100.00
40708;BME280;26392;42.696;23.350;2023-05-12T07:45:49;95674.78;;;12.03;100.00
40708;BME280;26392;42.696;23.350;2023-05-12T07:48:15;95687.41;;;11.87;100.00
40708;BME280;26392;42.696;23.350;2023-05-12T07:50:40;95681.50;;;12.17;100.00
40708;BME280;26392;42.696;23.350;2023-05-12T07:53:06;95687.22;;;12.16;100.00
40708;BME280;26392;42.696;23.350;2023-05-12T07:55:31;95671.72;;;12.21;100.00
40708;BME280;26392;42.696;23.350;2023-05-12T07:58:00;95681.28;;;12.51;100.00
40708;BME280;26392;42.696;23.350;2023-05-12T08:00:26;95678.56;;;12.78;100.00
40708;BME280;26392;42.696;23.350;2023-05-12T08:02:51;95677.81;;;12.88;100.00
40708;BME280;26392;42.696;23.350;2023-05-12T08:05:18;95670.16;;;13.22;100.00
40708;BME280;26392;42.696;23.350;2023-05-12T08:07:43;95670.53;;;13.36;100.00
40708;BME280;26392;42.696;23.350;2023-05-12T08:10:12;95671.25;;;12.89;100.00
40708;BME280;26392;42.696;23.350;2023-05-12T08:12:39;95671.19;;;13.16;100.00
40708;BME280;26392;42.696;23.350;2023-05-12T08:15:05;95680.09;;;13.33;100.00
40708;BME280;26392;42.696;23.350;2023-05-12T08:17:31;95676.31;;;13.39;99.81
40708;BME280;26392;42.696;23.350;2023-05-12T08:19:56;95671.16;;;13.48;97.39
40708;BME280;26392;42.696;23.350;2023-05-12T08:22:22;95674.63;;;13.86;92.36
40708;BME280;26392;42.696;23.350;2023-05-12T08:24:47;95668.31;;;13.80;87.42
40708;BME280;26392;42.696;23.350;2023-05-12T08:27:12;95672.53;;;14.03;84.26
40708;BME280;26392;42.696;23.350;2023-05-12T08:29:38;95680.00;;;14.23;79.97
40708;BME280;26392;42.696;23.350;2023-05-12T08:32:04;95678.13;;;14.44;77.18
40708;BME280;26392;42.696;23.350;2023-05-12T08:34:29;95675.19;;;14.66;76.66
40708;BME280;26392;42.696;23.350;2023-05-12T08:36:55;95674.13;;;14.88;74.13
40708;BME280;26392;42.696;23.350;2023-05-12T08:39:20;95684.28;;;15.18;73.25
40708;BME280;26392;42.696;23.350;2023-05-12T08:44:34;95681.50;;;15.23;66.78
40708;BME280;26392;42.696;23.350;2023-05-12T08:47:00;95683.72;;;14.90;68.25
40708;BME280;26392;42.696;23.350;2023-05-12T08:49:30;95677.66;;;14.63;68.70
40708;BME280;26392;42.696;23.350;2023-05-12T08:51:58;95673.81;;;14.64;69.95
40708;BME280;26392;42.696;23.350;2023-05-12T08:54:27;95667.75;;;14.62;69.78
40708;BME280;26392;42.696;23.350;2023-05-12T08:56:53;95676.84;;;14.83;68.65
40708;BME280;26392;42.696;23.350;2023-05-12T08:59:18;95676.50;;;14.48;67.23
40708;BME280;26392;42.696;23.350;2023-05-12T09:01:44;95676.22;;;14.40;70.83
40708;BME280;26392;42.696;23.350;2023-05-12T09:04:11;95678.19;;;14.54;68.14
40708;BME280;26392;42.696;23.350;2023-05-12T09:06:42;95665.50;;;14.38;68.27
40708;BME280;26392;42.696;23.350;2023-05-12T09:09:09;95672.06;;;14.27;68.92
40708;BME280;26392;42.696;23.350;2023-05-12T09:11:36;95660.00;;;14.33;66.29
40708;BME280;26392;42.696;23.350;2023-05-12T09:14:08;95666.13;;;14.55;66.60
40708;BME280;26392;42.696;23.350;2023-05-12T09:16:40;95658.47;;;14.83;66.48
40708;BME280;26392;42.696;23.350;2023-05-12T09:19:07;95656.56;;;15.04;64.64
40708;BME280;26392;42.696;23.350;2023-05-12T09:21:32;95659.84;;;14.96;63.19
40708;BME280;26392;42.696;23.350;2023-05-12T09:26:26;95650.22;;;14.58;66.46
40708;BME280;26392;42.696;23.350;2023-05-12T09:28:54;95651.59;;;14.81;66.16
40708;BME280;26392;42.696;23.350;2023-05-12T09:31:23;95643.09;;;14.97;66.13
40708;BME280;26392;42.696;23.350;2023-05-12T09:33:49;95649.97;;;15.15;64.28
40708;BME280;26392;42.696;23.350;2023-05-12T09:36:24;95648.31;;;15.25;63.21
40708;BME280;26392;42.696;23.350;2023-05-12T09:38:59;95640.06;;;15.09;62.32
40708;BME280;26392;42.696;23.350;2023-05-12T09:41:25;95630.47;;;14.55;63.51
40708;BME280;26392;42.696;23.350;2023-05-12T09:43:52;95644.75;;;14.73;64.40
40708;BME280;26392;42.696;23.350;2023-05-12T09:46:17;95643.91;;;14.67;63.47
40708;BME280;26392;42.696;23.350;2023-05-12T09:48:46;95638.66;;;14.40;65.75
40708;BME280;26392;42.696;23.350;2023-05-12T09:51:15;95642.03;;;14.68;65.85
40708;BME280;26392;42.696;23.350;2023-05-12T09:53:41;95635.97;;;14.61;64.97
40708;BME280;26392;42.696;23.350;2023-05-12T09:56:09;95636.75;;;14.51;66.35
40708;BME280;26392;42.696;23.350;2023-05-12T09:58:35;95648.31;;;14.73;67.70
40708;BME280;26392;42.696;23.350;2023-05-12T10:01:02;95643.09;;;14.67;64.03
40708;BME280;26392;42.696;23.350;2023-05-12T10:03:28;95634.59;;;14.78;63.89
40708;BME280;26392;42.696;23.350;2023-05-12T10:05:57;95626.91;;;15.16;63.77
40708;BME280;26392;42.696;23.350;2023-05-12T10:08:26;95628.25;;;15.34;63.75
40708;BME280;26392;42.696;23.350;2023-05-12T10:10:55;95625.97;;;15.77;64.16
40708;BME280;26392;42.696;23.350;2023-05-12T10:13:21;95611.69;;;15.60;63.78
40708;BME280;26392;42.696;23.350;2023-05-12T10:15:47;95625.75;;;16.23;63.07
40708;BME280;26392;42.696;23.350;2023-05-12T10:18:15;95619.56;;;16.47;59.86
40708;BME280;26392;42.696;23.350;2023-05-12T10:20:43;95622.97;;;16.78;58.43
40708;BME280;26392;42.696;23.350;2023-05-12T10:23:09;95616.16;;;16.99;57.31
40708;BME280;26392;42.696;23.350;2023-05-12T10:25:39;95617.13;;;17.14;57.30
40708;BME280;26392;42.696;23.350;2023-05-12T10:28:05;95621.16;;;17.27;56.46
40708;BME280;26392;42.696;23.350;2023-05-12T10:30:31;95616.78;;;17.50;55.93
40708;BME280;26392;42.696;23.350;2023-05-12T10:32:57;95621.19;;;17.75;54.99
40708;BME280;26392;42.696;23.350;2023-05-12T10:35:31;95611.94;;;18.14;53.08
40708;BME280;26392;42.696;23.350;2023-05-12T10:38:05;95604.91;;;18.02;52.26
40708;BME280;26392;42.696;23.350;2023-05-12T10:40:30;95588.56;;;18.30;52.02
40708;BME280;26392;42.696;23.350;2023-05-12T10:42:58;95604.81;;;18.88;50.79
40708;BME280;26392;42.696;23.350;2023-05-12T10:45:26;95605.34;;;18.52;50.89
40708;BME280;26392;42.696;23.350;2023-05-12T10:48:03;95600.16;;;18.65;51.09
40708;BME280;26392;42.696;23.350;2023-05-12T10:50:29;95600.31;;;18.73;49.75
40708;BME280;26392;42.696;23.350;2023-05-12T10:52:56;95591.31;;;18.49;49.17
40708;BME280;26392;42.696;23.350;2023-05-12T10:55:35;95590.09;;;18.17;48.43
40708;BME280;26392;42.696;23.350;2023-05-12T10:58:10;95598.53;;;18.26;49.14
40708;BME280;26392;42.696;23.350;2023-05-12T11:00:51;95595.50;;;18.46;48.23
40708;BME280;26392;42.696;23.350;2023-05-12T11:03:22;95602.25;;;18.73;48.05
40708;BME280;26392;42.696;23.350;2023-05-12T11:06:03;95607.88;;;18.87;47.76
40708;BME280;26392;42.696;23.350;2023-05-12T11:08:29;95607.47;;;18.37;47.23
40708;BME280;26392;42.696;23.350;2023-05-12T11:10:56;95595.78;;;18.64;48.21
40708;BME280;26392;42.696;23.350;2023-05-12T11:13:23;95607.19;;;18.95;47.95
40708;BME280;26392;42.696;23.350;2023-05-12T11:15:49;95603.09;;;18.92;47.80
40708;BME280;26392;42.696;23.350;2023-05-12T11:18:21;95609.13;;;18.94;46.66
40708;BME280;26392;42.696;23.350;2023-05-12T11:20:48;95610.41;;;19.02;46.94
40708;BME280;26392;42.696;23.350;2023-05-12T11:23:26;95607.28;;;18.52;45.59
40708;BME280;26392;42.696;23.350;2023-05-12T11:25:56;95614.09;;;18.73;45.62
40708;BME280;26392;42.696;23.350;2023-05-12T11:28:21;95619.03;;;18.95;44.61
40708;BME280;26392;42.696;23.350;2023-05-12T11:30:51;95610.22;;;18.80;46.23
40708;BME280;26392;42.696;23.350;2023-05-12T11:33:20;95613.75;;;18.99;47.26
40708;BME280;26392;42.696;23.350;2023-05-12T11:35:49;95612.22;;;19.39;46.78
40708;BME280;26392;42.696;23.350;2023-05-12T11:38:18;95612.00;;;19.22;46.38
40708;BME280;26392;42.696;23.350;2023-05-12T11:40:43;95601.84;;;18.66;45.90
40708;BME280;26392;42.696;23.350;2023-05-12T11:43:10;95616.31;;;18.76;46.85
40708;BME280;26392;42.696;23.350;2023-05-12T11:45:36;95621.56;;;18.73;46.76
40708;BME280;26392;42.696;23.350;2023-05-12T11:48:09;95607.03;;;18.48;44.23
40708;BME280;26392;42.696;23.350;2023-05-12T11:50:37;95606.31;;;18.24;45.13
40708;BME280;26392;42.696;23.350;2023-05-12T11:53:03;95604.63;;;17.80;46.86
40708;BME280;26392;42.696;23.350;2023-05-12T11:55:29;95597.84;;;17.96;47.43
40708;BME280;26392;42.696;23.350;2023-05-12T11:58:01;95592.94;;;18.12;47.35
40708;BME280;26392;42.696;23.350;2023-05-12T12:00:29;95608.00;;;18.20;46.66
40708;BME280;26392;42.696;23.350;2023-05-12T12:03:10;95608.81;;;18.20;46.97
40708;BME280;26392;42.696;23.350;2023-05-12T12:05:36;95594.94;;;18.06;47.23
40708;BME280;26392;42.696;23.350;2023-05-12T12:08:14;95595.47;;;18.08;48.16
40708;BME280;26392;42.696;23.350;2023-05-12T12:10:44;95607.56;;;17.88;48.32
40708;BME280;26392;42.696;23.350;2023-05-12T12:13:10;95620.97;;;17.95;47.99
40708;BME280;26392;42.696;23.350;2023-05-12T12:15:35;95608.00;;;17.72;48.66
40708;BME280;26392;42.696;23.350;2023-05-12T12:18:01;95598.72;;;17.38;49.11
40708;BME280;26392;42.696;23.350;2023-05-12T12:20:26;95603.44;;;17.62;49.77
40708;BME280;26392;42.696;23.350;2023-05-12T12:22:52;95608.78;;;17.77;50.11
40708;BME280;26392;42.696;23.350;2023-05-12T12:25:19;95614.66;;;17.95;50.15
40708;BME280;26392;42.696;23.350;2023-05-12T12:27:45;95612.00;;;18.08;48.99
40708;BME280;26392;42.696;23.350;2023-05-12T12:30:11;95605.94;;;17.87;48.57
40708;BME280;26392;42.696;23.350;2023-05-12T12:32:36;95600.47;;;18.06;49.44
40708;BME280;26392;42.696;23.350;2023-05-12T12:35:02;95609.13;;;18.19;49.51
40708;BME280;26392;42.696;23.350;2023-05-12T12:37:30;95609.84;;;17.57;48.21
40708;BME280;26392;42.696;23.350;2023-05-12T12:39:56;95607.97;;;17.77;48.40
40708;BME280;26392;42.696;23.350;2023-05-12T12:42:21;95589.75;;;17.81;48.98
40708;BME280;26392;42.696;23.350;2023-05-12T12:44:47;95596.41;;;17.75;48.31
40708;BME280;26392;42.696;23.350;2023-05-12T12:47:14;95606.03;;;17.53;48.26
40708;BME280;26392;42.696;23.350;2023-05-12T12:49:40;95604.09;;;17.54;48.96
40708;BME280;26392;42.696;23.350;2023-05-12T12:52:05;95602.94;;;17.31;48.76
40708;BME280;26392;42.696;23.350;2023-05-12T12:54:31;95602.31;;;17.39;49.28